Terminal Aerodrome Forecast
Issued by NWS Salt Lake City, UT

Home | Current Version | Previous Version | Text Only | Print | Product List | Glossary On
Versions: 1 2 3 4 5 6 7 8 9 10 11 12 13 14 15 16 17 18 19 20 21 22 23 24 25 26 27 28 29 30 31 32 33 34 35 36 37 38 39 40 41 42 43 44 45 46 47 48 49 50
000
FTUS45 KSLC 061235 AAA
TAFCDC
TAF AMD
KCDC 061235Z 0613/0712 24006KT P6SM -SHRA SCT025 OVC060
      TEMPO 0613/0615 SCT020 OVC025
     FM061600 22018G27KT P6SM SCT070 BKN080
     FM070300 19010KT P6SM SCT080 BKN100=

USA.gov is the U.S. government's official web portal to all federal, state and local government web resources and services.